Alamo, Nevada Weather observations

Data are for observation ending at time listed.
 Day   Time    Ave.   Ave.  Ave.  Vector   Max.   Stn.    Total    Solar   Ave.  
  of    of     Air    Rel.  Wind   Wind    Wind   Baro.  Precip.   Rad.    Soil  
Year   Day     Temp.  Hum.  Speed  Dir.    Gust   Pres.                    Temp. 
2026   (PST)    F      %     mph   deg.    mph     mb.     in.     W/m2     F   
------------------------------------------------------------------------------
 123    0:30   46.5    44    0.1    21      1.0   895.2    0.00       0    62.1
 123    0:40   45.9    44    1.2    14      3.0   895.1    0.00       0    62.0
 123    0:50   46.3    41    0.3    28      1.4   895.0    0.00       0    62.0
 123    1:00   46.4    43    0.2   325      1.2   895.0    0.00       0    61.8
 123    1:10   45.8    45    0.6   324      1.3   895.0    0.00       0    61.8
 123    1:20   45.5    44    1.2    20      2.5   895.0    0.00       0    61.4
 123    1:30   44.9    47    1.4   351      2.3   894.7    0.00       0    61.3
 123    1:40   44.7    48    0.5   339      1.6   894.6    0.00       0    61.4
 123    1:50   44.1    50    0.5     9      1.2   894.6    0.00       0    61.6
 123    2:00   43.7    51    0.3   344      1.5   894.5    0.00       0    61.0
 123    2:10   44.0    50    0.2    15      0.9   894.7    0.00       0    60.9
 123    2:20   43.5    52    0.0     0      0.0   894.6    0.00       0    60.7
 123    2:30   43.0    53    0.6   359      1.6   894.6    0.00       0    60.7
 123    2:40   43.2    49    0.2    11      1.2   894.5    0.00       0    60.3
 123    2:50   43.0    50    0.1    39      0.7   894.6    0.00       0    60.3
 123    3:00   43.0    51    0.0    36      0.9   894.6    0.00       0    60.3
 123    3:10   42.9    51    0.1    35      1.0   894.6    0.00       0    60.2
 123    3:20   43.1    50    0.5   314      1.6   894.7    0.00       0    60.0
 123    3:30   43.5    47    0.8    18      1.6   894.5    0.00       0    59.8
 123    3:40   43.4    47    0.5     0      1.3   894.4    0.00       0    59.8
 123    3:50   43.1    50    0.1   350      0.7   894.3    0.00       0    59.7
 123    4:00   42.3    52    0.0   351      0.6   894.3    0.00       0    59.7
 123    4:10   41.7    55    0.2   326      1.5   894.3    0.00       0    59.5
 123    4:20   41.8    56    0.3   341      1.7   894.3    0.00       0    59.3
 123    4:30   41.8    56    0.0   340      0.7   894.3    0.00       0    59.3
 123    4:40   41.6    53    0.6   322      1.6   894.3    0.00       0    59.2
 123    4:50   41.8    53    0.1    18      0.8   894.5    0.00       1    59.0
 123    5:00   41.5    54    0.0     0      0.0   894.5    0.00       5    59.0
 123    5:10   41.6    54    0.1    20      0.8   894.6    0.00      10    58.8
 123    5:20   42.1    51    0.4    37      1.2   894.7    0.00      17    58.7
 123    5:30   42.9    52    0.1    30      0.7   894.9    0.00      26    58.7
 123    5:40   44.0    48    0.4   328      1.0   895.0    0.00      33    58.5
 123    5:50   45.8    45    0.1   351      0.8   895.0    0.00      43    58.4
 123    6:00   47.3    47    0.0     3      0.3   895.1    0.00      51    58.4
 123    6:10   49.1    39    0.6   338      2.7   895.2    0.00      53    58.3
 123    6:20   51.3    34    0.9    26      2.9   895.2    0.00      51    58.2
 123    6:30   51.7    36    0.5    37      1.5   895.2    0.00      57    58.3
 123    6:40   52.5    33    1.5    11      2.5   895.2    0.00      48    58.3
 123    6:50   53.7    31    1.6     7      3.0   895.1    0.00      44    58.3
 123    7:00   55.5    29    1.8   359      3.1   895.1    0.00      41    58.3
 123    7:10   57.2    29    2.0    16      4.5   895.1    0.00      41    58.4
 123    7:20   58.8    26    2.8   351      5.8   895.1    0.00      41    58.4
 123    7:30   60.1    24    2.5     2      5.0   895.1    0.00      42    58.5
 123    7:40   61.0    23    2.4     6      5.3   895.0    0.00      33    58.5
 123    7:50   61.7    21    2.7   353      5.0   894.9    0.00      35    58.6
 123    8:00   62.9    19    2.5    28      5.2   894.8    0.00      35    58.6
 123    8:10   63.7    19    2.1    27      4.7   894.7    0.00      35    58.6
 123    8:20   64.8    17    2.6   339      4.9   894.7    0.00      42    58.7
 123    8:30   65.8    17    2.5   356      5.0   894.6    0.00      37    58.8
 123    8:40   66.9    16    2.9   334      5.3   894.5    0.00      35    58.8
 123    8:50   68.0    16    1.9   353      3.9   894.3    0.00      53    58.8
 123    9:00   68.8    14    1.6   343      4.1   894.2    0.00      64    58.9
 123    9:10   69.7    12    1.3   345      4.3   894.0    0.00      94    58.9
 123    9:20   70.9    13    2.0    12      5.1   893.8    0.00      49    59.0
 123    9:30   72.0    12    0.9   114      4.7   893.8    0.00      44    59.0
 123    9:40   72.9    12    1.4   211      4.3   893.7    0.00      80    59.1
 123    9:50   73.7    11    1.4   184      4.6   893.5    0.00     109    59.1
 123   10:00   74.8    12    1.4   186      3.4   893.4    0.00      87    59.2
 123   10:10   74.8    13    1.3   178      3.9   893.3    0.00     114    59.2
 123   10:20   75.4    12    1.1   180      3.4   893.1    0.00      84    59.4
 123   10:30   76.7    12    1.9   179      6.2   892.8    0.00      60    59.4
 123   10:40   77.8    12    1.9   180      5.0   892.7    0.00      69    59.5
 123   10:50   78.7    13    2.0   180      5.1   892.4    0.00      73    59.6
 123   11:00   79.2    12    1.8   177      5.1   892.3    0.00      60    59.7
 123   11:10   79.7    12    2.0   182      5.6   892.1    0.00      68    59.8
 123   11:20   80.0    12    2.3   176      6.9   891.9    0.00      71    59.9
 123   11:30   80.3    12    2.0   178      4.9   891.7    0.00     118    60.0
 123   11:40   80.4    12    1.8   147      4.5   891.5    0.00     225    60.1
 123   11:50   80.3    11    1.7   157      7.5   891.5    0.00     251    60.2
 123   12:00   80.5    11    1.7   153      6.0   891.2    0.00     228    60.4
 123   12:10   80.6    11    1.8   158      5.8   891.1    0.00     397    60.5
 123   12:20   80.9    12    2.7   170      9.3   890.9    0.00     369    60.7
 123   12:30   81.5    11    1.9   163      8.0   890.7    0.00     625    61.1
 123   12:40   81.2    11    1.8   154      8.0   890.5    0.00     945    61.6
 123   12:50   81.9    12    1.6   150      6.5   890.4    0.00     878    62.3
 123   13:00   82.4    11    1.3   147      4.3   890.2    0.00     943    62.9
 123   13:10   82.8    12    2.6   183     10.7   890.0    0.00     928    63.5
 123   13:20   82.9    11    2.9   185      8.6   890.0    0.00     847    64.1
 123   13:30   82.4    12    2.4   189      6.1   889.8    0.00     806    64.8
 123   13:40   83.7    12    2.4   182     11.8   889.7    0.00     865    65.4
 123   13:50   82.5    11    2.6   174      7.7   889.7    0.00     595    66.0
 123   14:00   82.1    12    1.9   170      7.6   889.5    0.00     710    66.5
 123   14:10   82.6    12    1.2   178      6.9   889.3    0.00     385    67.0
 123   14:20   80.3    12    1.9   184      8.3   889.1    0.00     144    67.4
 123   14:30   78.9    13    1.6   170      5.3   889.0    0.00     119    67.7
 123   14:40   78.6    12    1.9   162      5.2   888.9    0.00      73    68.0
 123   14:50   78.6    12    1.2   179      6.0   888.7    0.00      76    68.1
 123   15:00   78.3    13    1.9   179      6.7   888.6    0.00      85    68.1
 123   15:10   77.9    13    1.7   149      7.6   888.7    0.00     177    68.2
 123   15:20   80.0    13    1.2   161      3.9   888.6    0.00     408    68.2
 123   15:30   79.7    13    0.8   165      4.5   888.5    0.00     102    68.1
 123   15:40   77.6    14    1.9   168      7.5   888.7    0.00      74    68.1
 123   15:50   76.4    15    2.4   174     10.0   889.2    0.00     121    68.0
 123   16:00   76.9    14    1.8   201      6.3   889.1    0.00      74    67.9
 123   16:10   76.7    14    3.6   223     11.5   889.3    0.00      40    67.9
 123   16:20   76.3    15    1.8   345      7.2   889.4    0.00      75    67.8
 123   16:30   75.4    17    3.1    18      9.1   889.3    0.00      90    67.9
 123   16:40   74.8    17    2.0    26      6.8   889.1    0.00     103    67.7
 123   16:50   75.5    16    2.7   340      6.0   888.8    0.00     109    67.7
 123   17:00   75.7    17    1.1    11      3.4   888.8    0.00     134    67.6
 123   17:10   74.9    18    1.7    16      4.7   888.7    0.00      60    67.6
 123   17:20   74.7    18    0.6     5      3.5   888.8    0.00      31    67.5
 123   17:30   73.9    20    4.4    10     21.0   889.2    0.00      50    67.5
 123   17:40   73.6    19    1.1    56      4.2   888.6    0.00      62    67.4
 123   17:50   74.4    18    1.5   101      8.6   888.1    0.00      54    67.3
 123   18:00   74.5    18    1.2   216      4.6   888.0    0.00      28    67.3
 123   18:10   73.3    20    0.6   208      2.1   888.1    0.00      15    67.2
 123   18:20   72.6    19    1.0   304      2.3   888.1    0.00       8    67.1
 123   18:30   72.1    20    0.9   332      2.1   888.2    0.00       3    67.1
 123   18:40   71.0    23    0.1     2      2.1   888.3    0.00       1    67.0
 123   18:50   69.7    24    0.1   328      0.9   888.4    0.00       1    66.8
 123   19:00   69.1    25    1.5   298      3.1   888.4    0.00       0    66.7
 123   19:10   68.8    24    1.3   312      2.6   888.4    0.00       0    66.7
 123   19:20   68.8    24    0.9   291      3.2   888.5    0.00       0    66.8
 123   19:30   68.5    23    1.4   338      4.0   888.6    0.00       0    66.5
 123   19:40   67.4    26    1.0    38      2.9   888.7    0.00       0    66.7
 123   19:50   67.5    25    0.7    28      3.4   888.8    0.00       0    66.6
 123   20:00   68.1    24    1.5     7      3.1   888.9    0.00       0    66.4
 123   20:10   68.2    24    1.6    14      2.6   888.9    0.00       0    66.2
 123   20:20   68.1    24    2.2   355      4.2   889.0    0.00       0    66.2
 123   20:30   68.8    23    2.5   351      5.4   889.0    0.00       0    66.1
 123   20:40   68.8    23    2.5   304      4.3   889.1    0.00       0    65.9
 123   20:50   68.9    23    2.2   306      4.6   889.3    0.00       0    65.8
 123   21:00   68.5    24    2.3   276      6.4   889.6    0.00       0    65.8
 123   21:10   67.7    24    3.1   292      6.3   889.7    0.00       0    65.9
 123   21:20   69.4    22    7.2   250     26.5   889.7    0.00       0    65.8
 123   21:30   71.6    20    3.7   340     10.6   889.3    0.00       0    65.5
 123   21:40   71.1    21    3.0    27      7.9   889.3    0.00       0    65.7
 123   21:50   71.9    19    1.0    86      6.4   889.1    0.00       0    65.4
 123   22:00   71.8    20    0.4   156      1.8   889.1    0.00       0    65.4
 123   22:10   71.2    21    2.2   318      6.1   889.1    0.00       0    65.5
 123   22:20   70.8    21    2.4   313      6.7   889.3    0.00       0    65.3
 123   22:30   71.0    21    4.2   307      8.9   889.4    0.00       0    65.4
 123   22:40   71.0    22    2.4   270      6.8   889.8    0.00       0    65.2
 123   22:50   70.8    22    1.9    36      7.6   889.7    0.00       0    65.1
 123   23:00   70.2    23    1.9   208      8.5   889.7    0.00       0    65.3
 123   23:10   70.5    23    2.0   358      4.6   889.7    0.00       0    65.2
 123   23:20   68.3    27    2.5    27      6.7   889.8    0.00       0    65.3
 123   23:30   67.2    28    3.2    16      7.5   889.9    0.00       0    65.2
 123   23:40   66.7    29    2.3   342      4.7   889.8    0.00       0    65.0
 123   23:50   65.8    31    1.7     2      3.6   889.7    0.00       0    65.0
 124    0:00   65.1    32    1.7     6      5.4   889.6    0.00       0    65.1
 124    0:10   64.4    33    1.7   317      3.7   889.6    0.00       0    64.9
 124    0:20   64.1    33    1.7   333      3.8   889.6    0.00       0    65.3

Return to Alamo, Nevada graphs page.


Western Regional Climate Center,wrcc@dri.edu